sensor_id;sensor_type;location;lat;lon;timestamp;P1;durP1;ratioP1;P2;durP2;ratioP2
16667;SDS011;8447;52.630;4.734;2023-02-22T00:01:39;19.57;;;11.40;;
16667;SDS011;8447;52.630;4.734;2023-02-22T00:04:14;24.00;;;12.93;;
16667;SDS011;8447;52.630;4.734;2023-02-22T00:06:46;25.70;;;13.20;;
16667;SDS011;8447;52.630;4.734;2023-02-22T00:09:13;23.37;;;12.40;;
16667;SDS011;8447;52.630;4.734;2023-02-22T00:11:44;24.00;;;12.93;;
16667;SDS011;8447;52.630;4.734;2023-02-22T00:14:11;24.13;;;12.77;;
16667;SDS011;8447;52.630;4.734;2023-02-22T00:16:37;25.70;;;12.97;;
16667;SDS011;8447;52.630;4.734;2023-02-22T00:19:04;23.17;;;12.63;;
16667;SDS011;8447;52.630;4.734;2023-02-22T00:21:31;25.53;;;13.77;;
16667;SDS011;8447;52.630;4.734;2023-02-22T00:23:58;21.93;;;13.07;;
16667;SDS011;8447;52.630;4.734;2023-02-22T00:26:31;26.50;;;13.93;;
16667;SDS011;8447;52.630;4.734;2023-02-22T00:28:58;26.07;;;14.10;;
16667;SDS011;8447;52.630;4.734;2023-02-22T00:31:24;28.90;;;14.20;;
16667;SDS011;8447;52.630;4.734;2023-02-22T00:33:50;25.53;;;13.73;;
16667;SDS011;8447;52.630;4.734;2023-02-22T00:36:17;27.27;;;14.37;;
16667;SDS011;8447;52.630;4.734;2023-02-22T00:38:43;29.57;;;14.47;;
16667;SDS011;8447;52.630;4.734;2023-02-22T00:41:11;23.53;;;12.43;;
16667;SDS011;8447;52.630;4.734;2023-02-22T00:43:38;28.63;;;14.30;;
16667;SDS011;8447;52.630;4.734;2023-02-22T00:46:04;25.97;;;14.40;;
16667;SDS011;8447;52.630;4.734;2023-02-22T00:48:30;25.27;;;14.30;;
16667;SDS011;8447;52.630;4.734;2023-02-22T00:50:57;27.67;;;15.40;;
16667;SDS011;8447;52.630;4.734;2023-02-22T00:53:23;30.53;;;14.33;;
16667;SDS011;8447;52.630;4.734;2023-02-22T00:55:50;26.07;;;14.80;;
16667;SDS011;8447;52.630;4.734;2023-02-22T00:58:19;33.77;;;15.87;;
16667;SDS011;8447;52.630;4.734;2023-02-22T01:00:45;32.97;;;16.77;;
16667;SDS011;8447;52.630;4.734;2023-02-22T01:03:13;30.70;;;16.67;;
16667;SDS011;8447;52.630;4.734;2023-02-22T01:05:40;33.50;;;17.27;;
16667;SDS011;8447;52.630;4.734;2023-02-22T01:08:08;31.60;;;15.77;;
16667;SDS011;8447;52.630;4.734;2023-02-22T01:10:35;37.50;;;17.20;;
16667;SDS011;8447;52.630;4.734;2023-02-22T01:13:02;34.87;;;15.77;;
16667;SDS011;8447;52.630;4.734;2023-02-22T01:15:34;33.63;;;16.43;;
16667;SDS011;8447;52.630;4.734;2023-02-22T01:18:00;37.73;;;16.67;;
16667;SDS011;8447;52.630;4.734;2023-02-22T01:20:27;33.03;;;16.50;;
16667;SDS011;8447;52.630;4.734;2023-02-22T01:22:56;37.30;;;15.77;;
16667;SDS011;8447;52.630;4.734;2023-02-22T01:25:23;33.17;;;15.60;;
16667;SDS011;8447;52.630;4.734;2023-02-22T01:27:50;37.77;;;16.70;;
16667;SDS011;8447;52.630;4.734;2023-02-22T01:30:19;36.50;;;16.37;;
16667;SDS011;8447;52.630;4.734;2023-02-22T01:32:47;37.30;;;16.63;;
16667;SDS011;8447;52.630;4.734;2023-02-22T01:35:16;41.67;;;18.67;;
16667;SDS011;8447;52.630;4.734;2023-02-22T01:37:43;38.57;;;17.80;;
16667;SDS011;8447;52.630;4.734;2023-02-22T01:40:14;39.97;;;16.90;;
16667;SDS011;8447;52.630;4.734;2023-02-22T01:42:41;38.03;;;16.77;;
16667;SDS011;8447;52.630;4.734;2023-02-22T01:47:55;36.40;;;16.60;;
16667;SDS011;8447;52.630;4.734;2023-02-22T01:50:22;37.90;;;15.97;;
16667;SDS011;8447;52.630;4.734;2023-02-22T01:52:48;40.90;;;16.93;;
16667;SDS011;8447;52.630;4.734;2023-02-22T01:55:15;37.73;;;17.77;;
16667;SDS011;8447;52.630;4.734;2023-02-22T01:57:42;41.73;;;19.20;;
16667;SDS011;8447;52.630;4.734;2023-02-22T02:00:10;47.13;;;21.43;;
16667;SDS011;8447;52.630;4.734;2023-02-22T02:02:36;39.67;;;16.77;;
16667;SDS011;8447;52.630;4.734;2023-02-22T02:05:06;39.77;;;18.20;;
16667;SDS011;8447;52.630;4.734;2023-02-22T02:07:33;39.90;;;17.43;;
16667;SDS011;8447;52.630;4.734;2023-02-22T02:10:00;42.57;;;17.40;;
16667;SDS011;8447;52.630;4.734;2023-02-22T02:12:28;44.30;;;19.47;;
16667;SDS011;8447;52.630;4.734;2023-02-22T02:17:37;42.37;;;17.23;;
16667;SDS011;8447;52.630;4.734;2023-02-22T02:20:04;41.23;;;18.37;;
16667;SDS011;8447;52.630;4.734;2023-02-22T02:22:39;44.57;;;17.53;;
16667;SDS011;8447;52.630;4.734;2023-02-22T02:28:00;39.47;;;18.13;;
16667;SDS011;8447;52.630;4.734;2023-02-22T02:30:35;46.27;;;18.77;;
16667;SDS011;8447;52.630;4.734;2023-02-22T02:33:05;39.77;;;17.63;;
16667;SDS011;8447;52.630;4.734;2023-02-22T02:35:36;37.40;;;16.27;;
16667;SDS011;8447;52.630;4.734;2023-02-22T02:38:06;44.40;;;18.93;;
16667;SDS011;8447;52.630;4.734;2023-02-22T02:40:37;45.77;;;18.13;;
16667;SDS011;8447;52.630;4.734;2023-02-22T02:43:05;37.43;;;17.10;;
16667;SDS011;8447;52.630;4.734;2023-02-22T02:45:34;44.80;;;18.03;;
16667;SDS011;8447;52.630;4.734;2023-02-22T02:48:02;42.40;;;16.23;;
16667;SDS011;8447;52.630;4.734;2023-02-22T02:50:32;35.00;;;15.83;;
16667;SDS011;8447;52.630;4.734;2023-02-22T02:53:03;34.03;;;16.17;;
16667;SDS011;8447;52.630;4.734;2023-02-22T02:55:30;36.90;;;15.13;;
16667;SDS011;8447;52.630;4.734;2023-02-22T02:58:00;34.23;;;14.30;;
16667;SDS011;8447;52.630;4.734;2023-02-22T03:00:30;36.77;;;15.57;;
16667;SDS011;8447;52.630;4.734;2023-02-22T03:03:06;38.63;;;15.80;;
16667;SDS011;8447;52.630;4.734;2023-02-22T03:05:41;40.93;;;16.47;;
16667;SDS011;8447;52.630;4.734;2023-02-22T03:08:11;34.23;;;15.13;;
16667;SDS011;8447;52.630;4.734;2023-02-22T03:10:44;39.87;;;18.23;;
16667;SDS011;8447;52.630;4.734;2023-02-22T03:13:14;33.27;;;14.90;;
16667;SDS011;8447;52.630;4.734;2023-02-22T03:15:49;36.50;;;15.53;;
16667;SDS011;8447;52.630;4.734;2023-02-22T03:18:19;32.50;;;14.43;;
16667;SDS011;8447;52.630;4.734;2023-02-22T03:20:52;35.53;;;16.63;;
16667;SDS011;8447;52.630;4.734;2023-02-22T03:23:21;32.87;;;15.97;;
16667;SDS011;8447;52.630;4.734;2023-02-22T03:25:50;32.50;;;14.97;;
16667;SDS011;8447;52.630;4.734;2023-02-22T03:28:18;32.30;;;15.40;;
16667;SDS011;8447;52.630;4.734;2023-02-22T03:30:47;31.67;;;15.83;;
16667;SDS011;8447;52.630;4.734;2023-02-22T03:33:16;27.47;;;14.33;;
16667;SDS011;8447;52.630;4.734;2023-02-22T03:35:45;31.43;;;15.17;;
16667;SDS011;8447;52.630;4.734;2023-02-22T03:38:14;31.90;;;15.13;;
16667;SDS011;8447;52.630;4.734;2023-02-22T03:40:44;33.80;;;15.27;;
16667;SDS011;8447;52.630;4.734;2023-02-22T03:43:12;30.00;;;14.87;;
16667;SDS011;8447;52.630;4.734;2023-02-22T03:45:39;26.47;;;14.17;;
16667;SDS011;8447;52.630;4.734;2023-02-22T03:48:07;29.67;;;15.07;;
16667;SDS011;8447;52.630;4.734;2023-02-22T03:50:36;27.70;;;14.23;;
16667;SDS011;8447;52.630;4.734;2023-02-22T03:53:03;26.47;;;15.20;;
16667;SDS011;8447;52.630;4.734;2023-02-22T03:55:32;27.80;;;15.63;;
16667;SDS011;8447;52.630;4.734;2023-02-22T03:57:59;26.90;;;15.10;;
16667;SDS011;8447;52.630;4.734;2023-02-22T04:00:28;31.47;;;16.77;;
16667;SDS011;8447;52.630;4.734;2023-02-22T04:02:55;29.53;;;14.60;;
16667;SDS011;8447;52.630;4.734;2023-02-22T04:05:22;27.57;;;14.93;;
16667;SDS011;8447;52.630;4.734;2023-02-22T04:07:49;30.57;;;15.60;;
16667;SDS011;8447;52.630;4.734;2023-02-22T04:10:15;30.93;;;14.97;;
16667;SDS011;8447;52.630;4.734;2023-02-22T04:12:43;25.90;;;14.07;;
16667;SDS011;8447;52.630;4.734;2023-02-22T04:15:10;26.23;;;14.40;;
16667;SDS011;8447;52.630;4.734;2023-02-22T04:17:37;27.30;;;15.10;;
16667;SDS011;8447;52.630;4.734;2023-02-22T04:20:04;27.70;;;15.33;;
16667;SDS011;8447;52.630;4.734;2023-02-22T04:22:31;26.93;;;15.13;;
16667;SDS011;8447;52.630;4.734;2023-02-22T04:24:57;26.93;;;15.60;;
16667;SDS011;8447;52.630;4.734;2023-02-22T04:27:24;27.10;;;14.93;;
16667;SDS011;8447;52.630;4.734;2023-02-22T04:29:52;32.20;;;16.63;;
16667;SDS011;8447;52.630;4.734;2023-02-22T04:32:18;28.77;;;17.03;;
16667;SDS011;8447;52.630;4.734;2023-02-22T04:34:44;27.10;;;15.67;;
16667;SDS011;8447;52.630;4.734;2023-02-22T04:37:11;26.20;;;15.00;;
16667;SDS011;8447;52.630;4.734;2023-02-22T04:39:37;31.57;;;16.13;;
16667;SDS011;8447;52.630;4.734;2023-02-22T04:42:04;31.23;;;14.90;;
16667;SDS011;8447;52.630;4.734;2023-02-22T04:44:30;31.20;;;15.73;;
16667;SDS011;8447;52.630;4.734;2023-02-22T04:46:58;30.70;;;16.90;;
16667;SDS011;8447;52.630;4.734;2023-02-22T04:49:24;28.80;;;14.97;;
16667;SDS011;8447;52.630;4.734;2023-02-22T04:51:51;34.10;;;17.30;;
16667;SDS011;8447;52.630;4.734;2023-02-22T04:54:17;30.63;;;15.70;;
16667;SDS011;8447;52.630;4.734;2023-02-22T04:56:44;32.60;;;16.43;;
16667;SDS011;8447;52.630;4.734;2023-02-22T04:59:10;27.77;;;14.97;;
16667;SDS011;8447;52.630;4.734;2023-02-22T05:01:37;32.07;;;16.97;;
16667;SDS011;8447;52.630;4.734;2023-02-22T05:04:05;29.90;;;15.20;;
16667;SDS011;8447;52.630;4.734;2023-02-22T05:06:31;29.50;;;15.90;;
16667;SDS011;8447;52.630;4.734;2023-02-22T05:08:58;28.90;;;14.77;;
16667;SDS011;8447;52.630;4.734;2023-02-22T05:11:24;32.33;;;16.60;;
16667;SDS011;8447;52.630;4.734;2023-02-22T05:13:51;33.03;;;17.20;;
16667;SDS011;8447;52.630;4.734;2023-02-22T05:16:17;28.30;;;15.87;;
16667;SDS011;8447;52.630;4.734;2023-02-22T05:18:44;28.10;;;15.83;;
16667;SDS011;8447;52.630;4.734;2023-02-22T05:21:12;29.00;;;15.87;;
16667;SDS011;8447;52.630;4.734;2023-02-22T05:23:38;28.00;;;15.20;;
16667;SDS011;8447;52.630;4.734;2023-02-22T05:26:05;30.50;;;17.17;;
16667;SDS011;8447;52.630;4.734;2023-02-22T05:28:31;30.90;;;15.83;;
16667;SDS011;8447;52.630;4.734;2023-02-22T05:30:58;27.30;;;15.23;;
16667;SDS011;8447;52.630;4.734;2023-02-22T05:33:24;30.60;;;15.97;;
16667;SDS011;8447;52.630;4.734;2023-02-22T05:35:51;28.10;;;14.93;;
16667;SDS011;8447;52.630;4.734;2023-02-22T05:38:21;28.67;;;14.83;;
16667;SDS011;8447;52.630;4.734;2023-02-22T05:40:48;27.00;;;14.97;;
16667;SDS011;8447;52.630;4.734;2023-02-22T05:43:14;28.00;;;15.37;;
16667;SDS011;8447;52.630;4.734;2023-02-22T05:45:41;26.63;;;14.90;;
16667;SDS011;8447;52.630;4.734;2023-02-22T05:48:07;27.97;;;15.40;;
16667;SDS011;8447;52.630;4.734;2023-02-22T05:50:33;29.67;;;14.77;;
16667;SDS011;8447;52.630;4.734;2023-02-22T05:53:00;26.13;;;14.53;;
16667;SDS011;8447;52.630;4.734;2023-02-22T05:55:28;28.73;;;16.00;;
16667;SDS011;8447;52.630;4.734;2023-02-22T05:57:54;31.10;;;15.50;;
16667;SDS011;8447;52.630;4.734;2023-02-22T06:00:21;27.83;;;15.20;;
16667;SDS011;8447;52.630;4.734;2023-02-22T06:02:52;28.30;;;16.20;;
16667;SDS011;8447;52.630;4.734;2023-02-22T06:05:18;26.83;;;15.60;;
16667;SDS011;8447;52.630;4.734;2023-02-22T06:07:45;27.87;;;14.83;;
16667;SDS011;8447;52.630;4.734;2023-02-22T06:10:11;28.40;;;16.57;;
16667;SDS011;8447;52.630;4.734;2023-02-22T06:12:39;30.43;;;15.20;;
16667;SDS011;8447;52.630;4.734;2023-02-22T06:15:06;32.37;;;18.00;;
16667;SDS011;8447;52.630;4.734;2023-02-22T06:17:32;28.57;;;15.73;;
16667;SDS011;8447;52.630;4.734;2023-02-22T06:19:58;29.10;;;16.20;;
16667;SDS011;8447;52.630;4.734;2023-02-22T06:22:25;36.77;;;14.90;;
16667;SDS011;8447;52.630;4.734;2023-02-22T06:24:51;29.37;;;15.93;;
16667;SDS011;8447;52.630;4.734;2023-02-22T06:27:18;25.47;;;14.90;;
16667;SDS011;8447;52.630;4.734;2023-02-22T06:29:45;31.27;;;16.40;;
16667;SDS011;8447;52.630;4.734;2023-02-22T06:32:12;29.67;;;14.67;;
16667;SDS011;8447;52.630;4.734;2023-02-22T06:34:39;27.77;;;14.80;;
16667;SDS011;8447;52.630;4.734;2023-02-22T06:37:05;27.30;;;14.83;;
16667;SDS011;8447;52.630;4.734;2023-02-22T06:39:32;28.43;;;14.30;;
16667;SDS011;8447;52.630;4.734;2023-02-22T06:41:58;29.20;;;14.97;;
16667;SDS011;8447;52.630;4.734;2023-02-22T06:44:25;33.73;;;17.37;;
16667;SDS011;8447;52.630;4.734;2023-02-22T06:46:52;28.80;;;15.33;;
16667;SDS011;8447;52.630;4.734;2023-02-22T06:49:20;28.70;;;16.17;;
16667;SDS011;8447;52.630;4.734;2023-02-22T06:51:46;25.47;;;14.60;;
16667;SDS011;8447;52.630;4.734;2023-02-22T06:54:13;26.77;;;15.80;;
16667;SDS011;8447;52.630;4.734;2023-02-22T06:56:39;32.10;;;19.00;;
16667;SDS011;8447;52.630;4.734;2023-02-22T06:59:06;29.00;;;15.50;;
16667;SDS011;8447;52.630;4.734;2023-02-22T07:01:32;27.87;;;15.10;;
16667;SDS011;8447;52.630;4.734;2023-02-22T07:04:00;28.87;;;17.03;;
16667;SDS011;8447;52.630;4.734;2023-02-22T07:06:27;27.30;;;13.47;;
16667;SDS011;8447;52.630;4.734;2023-02-22T07:08:53;27.73;;;15.30;;
16667;SDS011;8447;52.630;4.734;2023-02-22T07:11:19;30.93;;;16.87;;
16667;SDS011;8447;52.630;4.734;2023-02-22T07:13:46;24.40;;;13.10;;
16667;SDS011;8447;52.630;4.734;2023-02-22T07:16:12;26.73;;;15.97;;
16667;SDS011;8447;52.630;4.734;2023-02-22T07:18:39;28.70;;;15.33;;
16667;SDS011;8447;52.630;4.734;2023-02-22T07:21:06;27.27;;;14.53;;
16667;SDS011;8447;52.630;4.734;2023-02-22T07:23:33;26.67;;;16.00;;
16667;SDS011;8447;52.630;4.734;2023-02-22T07:25:59;27.27;;;15.00;;
16667;SDS011;8447;52.630;4.734;2023-02-22T07:28:26;31.63;;;16.93;;
16667;SDS011;8447;52.630;4.734;2023-02-22T07:30:52;31.40;;;19.40;;
16667;SDS011;8447;52.630;4.734;2023-02-22T07:33:19;28.83;;;14.97;;
16667;SDS011;8447;52.630;4.734;2023-02-22T07:35:46;27.90;;;15.03;;
16667;SDS011;8447;52.630;4.734;2023-02-22T07:38:14;29.60;;;15.27;;
16667;SDS011;8447;52.630;4.734;2023-02-22T07:40:41;30.83;;;16.43;;
16667;SDS011;8447;52.630;4.734;2023-02-22T07:43:12;25.23;;;14.33;;
16667;SDS011;8447;52.630;4.734;2023-02-22T07:45:39;28.47;;;15.77;;
16667;SDS011;8447;52.630;4.734;2023-02-22T07:48:05;24.97;;;14.37;;
16667;SDS011;8447;52.630;4.734;2023-02-22T07:50:32;26.70;;;15.37;;
16667;SDS011;8447;52.630;4.734;2023-02-22T07:53:01;25.70;;;15.43;;
16667;SDS011;8447;52.630;4.734;2023-02-22T07:55:29;26.27;;;15.13;;
16667;SDS011;8447;52.630;4.734;2023-02-22T07:57:56;27.50;;;16.67;;
16667;SDS011;8447;52.630;4.734;2023-02-22T08:00:25;24.97;;;14.57;;
16667;SDS011;8447;52.630;4.734;2023-02-22T08:02:52;28.67;;;15.70;;
16667;SDS011;8447;52.630;4.734;2023-02-22T08:05:19;27.70;;;14.83;;
16667;SDS011;8447;52.630;4.734;2023-02-22T08:07:47;28.40;;;15.37;;
16667;SDS011;8447;52.630;4.734;2023-02-22T08:10:14;27.37;;;14.73;;
16667;SDS011;8447;52.630;4.734;2023-02-22T08:12:42;27.10;;;15.40;;
16667;SDS011;8447;52.630;4.734;2023-02-22T08:15:09;27.07;;;15.07;;
16667;SDS011;8447;52.630;4.734;2023-02-22T08:17:40;27.53;;;15.43;;
16667;SDS011;8447;52.630;4.734;2023-02-22T08:20:06;31.30;;;16.97;;
16667;SDS011;8447;52.630;4.734;2023-02-22T08:22:33;32.03;;;18.23;;
16667;SDS011;8447;52.630;4.734;2023-02-22T08:24:59;29.00;;;15.67;;
16667;SDS011;8447;52.630;4.734;2023-02-22T08:27:26;28.13;;;16.47;;
16667;SDS011;8447;52.630;4.734;2023-02-22T08:29:54;28.17;;;16.70;;
16667;SDS011;8447;52.630;4.734;2023-02-22T08:32:21;28.43;;;16.77;;
16667;SDS011;8447;52.630;4.734;2023-02-22T08:34:48;27.67;;;15.50;;
16667;SDS011;8447;52.630;4.734;2023-02-22T08:37:15;29.57;;;16.60;;
16667;SDS011;8447;52.630;4.734;2023-02-22T08:39:42;30.03;;;16.60;;
16667;SDS011;8447;52.630;4.734;2023-02-22T08:42:08;29.27;;;15.20;;
16667;SDS011;8447;52.630;4.734;2023-02-22T08:44:35;26.03;;;16.10;;
16667;SDS011;8447;52.630;4.734;2023-02-22T08:47:03;28.50;;;15.63;;
16667;SDS011;8447;52.630;4.734;2023-02-22T08:49:29;30.70;;;16.83;;
16667;SDS011;8447;52.630;4.734;2023-02-22T08:51:56;22.70;;;14.27;;
16667;SDS011;8447;52.630;4.734;2023-02-22T08:54:22;30.07;;;15.97;;
16667;SDS011;8447;52.630;4.734;2023-02-22T08:56:49;27.13;;;15.53;;
16667;SDS011;8447;52.630;4.734;2023-02-22T08:59:15;27.23;;;15.30;;
16667;SDS011;8447;52.630;4.734;2023-02-22T09:01:41;27.93;;;15.53;;
16667;SDS011;8447;52.630;4.734;2023-02-22T09:04:09;27.97;;;14.90;;
16667;SDS011;8447;52.630;4.734;2023-02-22T09:06:36;27.37;;;15.07;;
16667;SDS011;8447;52.630;4.734;2023-02-22T09:09:02;29.40;;;15.80;;
16667;SDS011;8447;52.630;4.734;2023-02-22T09:11:28;26.30;;;14.47;;
16667;SDS011;8447;52.630;4.734;2023-02-22T09:13:55;32.93;;;17.70;;
16667;SDS011;8447;52.630;4.734;2023-02-22T09:16:21;27.63;;;14.87;;
16667;SDS011;8447;52.630;4.734;2023-02-22T09:18:47;25.27;;;14.10;;
16667;SDS011;8447;52.630;4.734;2023-02-22T09:21:15;27.60;;;16.60;;
16667;SDS011;8447;52.630;4.734;2023-02-22T09:23:42;28.87;;;16.80;;
16667;SDS011;8447;52.630;4.734;2023-02-22T09:26:08;28.73;;;16.57;;
16667;SDS011;8447;52.630;4.734;2023-02-22T09:28:34;29.80;;;17.13;;
16667;SDS011;8447;52.630;4.734;2023-02-22T09:31:01;30.37;;;14.80;;
16667;SDS011;8447;52.630;4.734;2023-02-22T09:33:27;27.27;;;15.40;;
16667;SDS011;8447;52.630;4.734;2023-02-22T09:35:53;28.70;;;15.97;;
16667;SDS011;8447;52.630;4.734;2023-02-22T09:38:22;30.60;;;16.13;;
16667;SDS011;8447;52.630;4.734;2023-02-22T09:40:49;28.60;;;14.00;;
16667;SDS011;8447;52.630;4.734;2023-02-22T09:43:20;26.47;;;15.67;;
16667;SDS011;8447;52.630;4.734;2023-02-22T09:45:53;27.80;;;16.30;;
16667;SDS011;8447;52.630;4.734;2023-02-22T09:48:23;29.20;;;16.20;;
16667;SDS011;8447;52.630;4.734;2023-02-22T09:50:50;26.30;;;14.03;;
16667;SDS011;8447;52.630;4.734;2023-02-22T09:53:20;25.97;;;14.00;;
16667;SDS011;8447;52.630;4.734;2023-02-22T09:55:55;22.53;;;12.73;;
16667;SDS011;8447;52.630;4.734;2023-02-22T09:58:23;25.80;;;16.30;;
16667;SDS011;8447;52.630;4.734;2023-02-22T10:00:50;26.43;;;15.10;;
16667;SDS011;8447;52.630;4.734;2023-02-22T10:03:21;27.70;;;16.10;;
16667;SDS011;8447;52.630;4.734;2023-02-22T10:05:50;24.80;;;14.53;;
16667;SDS011;8447;52.630;4.734;2023-02-22T10:08:18;27.10;;;15.47;;
16667;SDS011;8447;52.630;4.734;2023-02-22T10:10:46;26.13;;;14.70;;
16667;SDS011;8447;52.630;4.734;2023-02-22T10:13:20;24.20;;;14.83;;
16667;SDS011;8447;52.630;4.734;2023-02-22T10:15:53;30.00;;;16.77;;
16667;SDS011;8447;52.630;4.734;2023-02-22T10:18:31;27.93;;;15.10;;
16667;SDS011;8447;52.630;4.734;2023-02-22T10:21:03;25.43;;;15.23;;
16667;SDS011;8447;52.630;4.734;2023-02-22T10:23:32;25.73;;;14.70;;
16667;SDS011;8447;52.630;4.734;2023-02-22T10:26:03;25.47;;;14.10;;
16667;SDS011;8447;52.630;4.734;2023-02-22T10:28:33;27.67;;;15.90;;
16667;SDS011;8447;52.630;4.734;2023-02-22T10:31:04;26.70;;;13.97;;
16667;SDS011;8447;52.630;4.734;2023-02-22T10:33:33;27.20;;;14.90;;
16667;SDS011;8447;52.630;4.734;2023-02-22T10:36:02;25.47;;;15.30;;
16667;SDS011;8447;52.630;4.734;2023-02-22T10:38:29;28.80;;;15.53;;
16667;SDS011;8447;52.630;4.734;2023-02-22T10:40:58;22.73;;;12.87;;
16667;SDS011;8447;52.630;4.734;2023-02-22T10:43:26;24.30;;;14.17;;
16667;SDS011;8447;52.630;4.734;2023-02-22T10:45:54;22.47;;;13.93;;
16667;SDS011;8447;52.630;4.734;2023-02-22T10:48:21;24.00;;;13.53;;
16667;SDS011;8447;52.630;4.734;2023-02-22T10:50:58;24.67;;;14.27;;
16667;SDS011;8447;52.630;4.734;2023-02-22T10:53:26;24.50;;;13.20;;
16667;SDS011;8447;52.630;4.734;2023-02-22T10:56:08;24.30;;;14.80;;
16667;SDS011;8447;52.630;4.734;2023-02-22T10:58:45;26.10;;;14.63;;
16667;SDS011;8447;52.630;4.734;2023-02-22T11:01:20;22.07;;;14.23;;
16667;SDS011;8447;52.630;4.734;2023-02-22T11:03:55;23.80;;;13.97;;
16667;SDS011;8447;52.630;4.734;2023-02-22T11:06:21;26.73;;;15.23;;
16667;SDS011;8447;52.630;4.734;2023-02-22T11:08:48;23.43;;;13.87;;
16667;SDS011;8447;52.630;4.734;2023-02-22T11:11:22;24.20;;;13.97;;
16667;SDS011;8447;52.630;4.734;2023-02-22T11:13:52;27.20;;;14.33;;
16667;SDS011;8447;52.630;4.734;2023-02-22T11:16:26;23.47;;;12.80;;
16667;SDS011;8447;52.630;4.734;2023-02-22T11:18:58;23.23;;;13.00;;
16667;SDS011;8447;52.630;4.734;2023-02-22T11:21:25;23.87;;;14.03;;
16667;SDS011;8447;52.630;4.734;2023-02-22T11:23:59;25.37;;;14.43;;
16667;SDS011;8447;52.630;4.734;2023-02-22T11:26:26;24.73;;;14.27;;
16667;SDS011;8447;52.630;4.734;2023-02-22T11:28:53;23.30;;;13.03;;
16667;SDS011;8447;52.630;4.734;2023-02-22T11:31:23;24.23;;;13.23;;
16667;SDS011;8447;52.630;4.734;2023-02-22T11:33:52;24.47;;;13.77;;
16667;SDS011;8447;52.630;4.734;2023-02-22T11:36:29;26.73;;;14.20;;
16667;SDS011;8447;52.630;4.734;2023-02-22T11:38:55;29.40;;;14.63;;
16667;SDS011;8447;52.630;4.734;2023-02-22T11:41:25;25.47;;;13.53;;
16667;SDS011;8447;52.630;4.734;2023-02-22T11:43:52;21.47;;;13.40;;
16667;SDS011;8447;52.630;4.734;2023-02-22T11:46:19;21.23;;;13.67;;
16667;SDS011;8447;52.630;4.734;2023-02-22T11:48:53;22.47;;;12.93;;
16667;SDS011;8447;52.630;4.734;2023-02-22T11:51:26;22.53;;;12.47;;
16667;SDS011;8447;52.630;4.734;2023-02-22T11:56:50;17.53;;;11.47;;
16667;SDS011;8447;52.630;4.734;2023-02-22T11:59:20;22.03;;;13.30;;
16667;SDS011;8447;52.630;4.734;2023-02-22T12:01:50;19.63;;;12.03;;
16667;SDS011;8447;52.630;4.734;2023-02-22T12:07:09;18.30;;;11.60;;
16667;SDS011;8447;52.630;4.734;2023-02-22T12:09:40;21.20;;;12.07;;
16667;SDS011;8447;52.630;4.734;2023-02-22T12:12:11;16.77;;;11.63;;
16667;SDS011;8447;52.630;4.734;2023-02-22T12:14:42;15.10;;;10.20;;
16667;SDS011;8447;52.630;4.734;2023-02-22T12:17:12;17.77;;;11.40;;
16667;SDS011;8447;52.630;4.734;2023-02-22T12:19:45;16.37;;;11.37;;
16667;SDS011;8447;52.630;4.734;2023-02-22T12:22:14;17.87;;;11.40;;
16667;SDS011;8447;52.630;4.734;2023-02-22T12:24:42;19.90;;;11.33;;
16667;SDS011;8447;52.630;4.734;2023-02-22T12:27:13;16.67;;;10.97;;
16667;SDS011;8447;52.630;4.734;2023-02-22T12:29:42;17.50;;;11.27;;
16667;SDS011;8447;52.630;4.734;2023-02-22T12:32:12;17.23;;;11.67;;
16667;SDS011;8447;52.630;4.734;2023-02-22T12:34:41;15.40;;;10.37;;
16667;SDS011;8447;52.630;4.734;2023-02-22T12:37:11;18.17;;;11.40;;
16667;SDS011;8447;52.630;4.734;2023-02-22T12:39:41;17.13;;;10.40;;
16667;SDS011;8447;52.630;4.734;2023-02-22T12:42:11;16.70;;;10.43;;
16667;SDS011;8447;52.630;4.734;2023-02-22T12:44:38;16.40;;;10.33;;
16667;SDS011;8447;52.630;4.734;2023-02-22T12:47:06;20.13;;;11.70;;
16667;SDS011;8447;52.630;4.734;2023-02-22T12:49:37;19.90;;;10.77;;
16667;SDS011;8447;52.630;4.734;2023-02-22T12:52:07;14.73;;;8.77;;
16667;SDS011;8447;52.630;4.734;2023-02-22T12:54:38;17.53;;;11.10;;
16667;SDS011;8447;52.630;4.734;2023-02-22T12:57:10;18.60;;;11.13;;
16667;SDS011;8447;52.630;4.734;2023-02-22T12:59:43;18.00;;;10.43;;
16667;SDS011;8447;52.630;4.734;2023-02-22T13:02:11;16.90;;;10.57;;
16667;SDS011;8447;52.630;4.734;2023-02-22T13:04:39;18.00;;;11.73;;
16667;SDS011;8447;52.630;4.734;2023-02-22T13:07:10;18.17;;;11.77;;
16667;SDS011;8447;52.630;4.734;2023-02-22T13:09:46;19.30;;;10.87;;
16667;SDS011;8447;52.630;4.734;2023-02-22T13:12:16;18.27;;;10.73;;
16667;SDS011;8447;52.630;4.734;2023-02-22T13:14:48;19.87;;;11.53;;
16667;SDS011;8447;52.630;4.734;2023-02-22T13:17:18;15.47;;;10.30;;
16667;SDS011;8447;52.630;4.734;2023-02-22T13:19:48;18.93;;;11.00;;
16667;SDS011;8447;52.630;4.734;2023-02-22T13:22:17;16.07;;;10.90;;
16667;SDS011;8447;52.630;4.734;2023-02-22T13:24:47;19.40;;;11.40;;
16667;SDS011;8447;52.630;4.734;2023-02-22T13:27:19;20.50;;;11.00;;
16667;SDS011;8447;52.630;4.734;2023-02-22T13:29:47;16.33;;;10.67;;
16667;SDS011;8447;52.630;4.734;2023-02-22T13:32:23;20.37;;;11.03;;
16667;SDS011;8447;52.630;4.734;2023-02-22T13:35:00;17.77;;;10.20;;
16667;SDS011;8447;52.630;4.734;2023-02-22T13:37:40;15.87;;;10.47;;
16667;SDS011;8447;52.630;4.734;2023-02-22T13:43:15;20.40;;;10.60;;
16667;SDS011;8447;52.630;4.734;2023-02-22T13:46:02;15.53;;;10.20;;
16667;SDS011;8447;52.630;4.734;2023-02-22T13:48:36;17.33;;;10.93;;
16667;SDS011;8447;52.630;4.734;2023-02-22T13:51:10;18.33;;;11.30;;
16667;SDS011;8447;52.630;4.734;2023-02-22T13:53:40;16.47;;;11.07;;
16667;SDS011;8447;52.630;4.734;2023-02-22T13:56:08;17.27;;;11.50;;
16667;SDS011;8447;52.630;4.734;2023-02-22T13:58:46;16.43;;;11.30;;
16667;SDS011;8447;52.630;4.734;2023-02-22T14:04:00;19.17;;;11.03;;
16667;SDS011;8447;52.630;4.734;2023-02-22T14:06:43;17.50;;;10.57;;
16667;SDS011;8447;52.630;4.734;2023-02-22T14:09:12;18.47;;;11.03;;
16667;SDS011;8447;52.630;4.734;2023-02-22T14:11:43;16.10;;;10.57;;
16667;SDS011;8447;52.630;4.734;2023-02-22T14:14:15;17.63;;;12.00;;
16667;SDS011;8447;52.630;4.734;2023-02-22T14:16:53;17.20;;;11.27;;
16667;SDS011;8447;52.630;4.734;2023-02-22T14:19:35;16.90;;;10.37;;
16667;SDS011;8447;52.630;4.734;2023-02-22T14:22:03;17.10;;;11.77;;
16667;SDS011;8447;52.630;4.734;2023-02-22T14:24:39;17.53;;;10.80;;
16667;SDS011;8447;52.630;4.734;2023-02-22T14:27:07;19.20;;;10.97;;
16667;SDS011;8447;52.630;4.734;2023-02-22T14:29:35;17.53;;;10.97;;
16667;SDS011;8447;52.630;4.734;2023-02-22T14:32:03;16.20;;;10.87;;
16667;SDS011;8447;52.630;4.734;2023-02-22T14:34:39;17.97;;;11.57;;
16667;SDS011;8447;52.630;4.734;2023-02-22T14:37:06;17.07;;;11.00;;
16667;SDS011;8447;52.630;4.734;2023-02-22T14:39:34;20.53;;;11.50;;
16667;SDS011;8447;52.630;4.734;2023-02-22T14:42:04;20.80;;;12.00;;
16667;SDS011;8447;52.630;4.734;2023-02-22T14:44:33;17.67;;;11.93;;
16667;SDS011;8447;52.630;4.734;2023-02-22T14:47:03;20.73;;;11.47;;
16667;SDS011;8447;52.630;4.734;2023-02-22T14:49:32;17.63;;;11.27;;
16667;SDS011;8447;52.630;4.734;2023-02-22T14:52:03;19.30;;;12.00;;
16667;SDS011;8447;52.630;4.734;2023-02-22T14:54:33;15.77;;;11.37;;
16667;SDS011;8447;52.630;4.734;2023-02-22T14:57:06;18.80;;;11.97;;
16667;SDS011;8447;52.630;4.734;2023-02-22T14:59:47;18.63;;;11.90;;
16667;SDS011;8447;52.630;4.734;2023-02-22T15:02:18;16.10;;;10.60;;